< < Back
Terminal Aerodrome Forecast


Current Version              Previous Versions:   1  2  3  4  5  6  7  8  9  

Terminal Aerodrome Forecast

476
FTAK31 PAJN 291700
TAFAHN
TAF
PAHN 291728Z 2918/3018 10008KT P6SM -SHRA OVC015
     FM292100 11008KT P6SM -SHRA FEW010 SCT015 OVC030
      AMD LTD TO CLD VIS AND WIND=



Latest METAR

878
SAUS70 KWBC 292000
MTRAHN
METAR KAHN 291951Z VRB04KT 10SM CLR 16/M12 A3030 RMK AO2 SLP266
T01561117


USA.gov is the U.S. government's official web portal to all federal, state and local government web resources and services.